Time;durP1;ratioP1;P1;durP2;ratioP2;P2;SDS_P1;SDS_P2;PMS_P1;PMS_P2;Temp;Humidity;BMP_temperature;BMP_pressure;BME280_temperature;BME280_humidity;BME280_pressure;Samples;Min_cycle;Max_cycle;Signal;HPM_P1;HPM_P2
2021/06/30 00:01:13;;;;;;;24.98;22.52;;;;;;;19.87;100.00;99928.16;3585247;39;20064;-50
2021/06/30 00:03:45;;;;;;;27.33;23.35;;;;;;;19.83;100.00;99922.19;3585090;39;20060;-54
2021/06/30 00:06:18;;;;;;;24.45;21.92;;;;;;;19.73;100.00;99920.69;3585215;39;20055;-52
2021/06/30 00:08:50;;;;;;;27.33;24.73;;;;;;;19.81;100.00;99918.75;3584938;39;20160;-54
2021/06/30 00:11:23;;;;;;;28.48;25.30;;;;;;;19.57;100.00;99912.38;3585051;39;20055;-53
2021/06/30 00:13:55;;;;;;;27.63;24.92;;;;;;;19.49;100.00;99916.91;3585108;39;20118;-55
2021/06/30 00:16:31;;;;;;;26.67;23.92;;;;;;;19.68;100.00;99914.75;3585097;39;20068;-52
2021/06/30 00:19:06;;;;;;;27.00;24.30;;;;;;;19.71;100.00;99915.53;3584996;39;20145;-52
2021/06/30 00:21:39;;;;;;;27.88;25.17;;;;;;;19.53;100.00;99922.00;3585238;39;20141;-57
2021/06/30 00:24:11;;;;;;;27.70;24.90;;;;;;;20.22;100.00;99922.91;3585043;39;20457;-53
2021/06/30 00:26:43;;;;;;;29.05;26.02;;;;;;;20.20;100.00;99929.03;3585199;39;20129;-53
2021/06/30 00:29:15;;;;;;;28.63;25.63;;;;;;;20.00;100.00;99947.75;3584828;39;20048;-52
2021/06/30 00:31:47;;;;;;;28.45;24.13;;;;;;;20.47;100.00;99937.84;3585163;39;20064;-52
2021/06/30 00:34:19;;;;;;;26.38;23.67;;;;;;;20.38;100.00;99944.16;3585066;39;20298;-54
2021/06/30 00:36:51;;;;;;;26.05;23.50;;;;;;;20.43;100.00;99937.09;3584814;39;20044;-56
2021/06/30 00:39:23;;;;;;;26.58;23.98;;;;;;;20.63;100.00;99933.13;3584592;39;20074;-54
2021/06/30 00:41:57;;;;;;;26.05;23.42;;;;;;;20.41;100.00;99925.88;3584688;39;20102;-52
2021/06/30 00:44:33;;;;;;;26.45;23.80;;;;;;;20.58;100.00;99915.91;3584912;39;20703;-53
2021/06/30 00:47:06;;;;;;;31.52;28.00;;;;;;;20.13;100.00;99915.34;3584579;39;20798;-54
2021/06/30 00:49:38;;;;;;;32.83;28.58;;;;;;;19.90;100.00;99915.94;3584716;39;20141;-54
2021/06/30 00:52:10;;;;;;;35.22;31.05;;;;;;;19.51;100.00;99921.19;3584655;39;20060;-52
2021/06/30 00:54:42;;;;;;;36.47;32.63;;;;;;;19.52;100.00;99917.69;3584791;39;20063;-57
2021/06/30 00:57:17;;;;;;;36.95;30.23;;;;;;;19.44;100.00;99913.56;3584593;39;20067;-53
2021/06/30 00:59:49;;;;;;;37.53;33.50;;;;;;;19.36;100.00;99908.53;3584551;39;20130;-53
2021/06/30 01:02:22;;;;;;;36.95;32.92;;;;;;;19.41;100.00;99895.44;3584258;39;20057;-51
2021/06/30 01:04:54;;;;;;;36.67;32.97;;;;;;;19.42;100.00;99897.19;3584587;39;20142;-54
2021/06/30 01:07:26;;;;;;;36.42;32.50;;;;;;;19.43;100.00;99878.09;3584442;39;20055;-58
2021/06/30 01:09:58;;;;;;;33.80;30.42;;;;;;;19.54;100.00;99876.94;3584606;39;20581;-56
2021/06/30 01:12:30;;;;;;;33.55;30.25;;;;;;;19.84;100.00;99862.38;3584738;39;20068;-56
2021/06/30 01:15:07;;;;;;;33.15;29.80;;;;;;;19.95;100.00;99872.50;3584843;39;20101;-55
2021/06/30 01:17:45;;;;;;;37.00;31.50;;;;;;;19.97;100.00;99865.53;3584462;39;20109;-54
2021/06/30 01:20:26;;;;;;;33.95;30.42;;;;;;;19.60;100.00;99868.22;3584491;39;20150;-52
2021/06/30 01:23:06;;;;;;;39.13;34.88;;;;;;;19.18;100.00;99883.00;3584368;39;20049;-53
2021/06/30 01:25:41;;;;;;;37.38;33.47;;;;;;;19.11;100.00;99876.25;3584675;39;20145;-53
2021/06/30 01:28:14;;;;;;;38.17;34.30;;;;;;;19.32;100.00;99881.81;3584077;39;20072;-52
2021/06/30 01:30:49;;;;;;;42.53;36.17;;;;;;;19.24;100.00;99872.50;3584590;39;20064;-51
2021/06/30 01:33:22;;;;;;;42.45;34.47;;;;;;;19.24;100.00;99868.16;3584741;39;20311;-58
2021/06/30 01:35:55;;;;;;;39.03;34.85;;;;;;;19.16;100.00;99859.69;3584548;39;20516;-51
2021/06/30 01:38:28;;;;;;;40.58;36.28;;;;;;;19.15;100.00;99857.97;3584026;39;20056;-52
2021/06/30 01:41:00;;;;;;;37.90;34.08;;;;;;;19.16;100.00;99862.28;3584725;39;20430;-53
2021/06/30 01:43:32;;;;;;;39.13;34.50;;;;;;;19.27;100.00;99855.09;3584427;39;20137;-49
2021/06/30 01:46:04;;;;;;;38.40;34.25;;;;;;;19.25;100.00;99853.44;3584205;39;20178;-56
2021/06/30 01:48:37;;;;;;;37.47;33.58;;;;;;;19.36;100.00;99856.59;3584671;39;20488;-54
2021/06/30 01:51:08;;;;;;;36.78;32.85;;;;;;;19.31;100.00;99853.28;3584664;39;20064;-53
2021/06/30 01:53:40;;;;;;;35.38;31.67;;;;;;;19.64;100.00;99853.38;3584592;39;20045;-52
2021/06/30 01:56:12;;;;;;;37.65;33.75;;;;;;;19.64;100.00;99858.56;3584361;39;20092;-53
2021/06/30 01:58:44;;;;;;;36.58;32.88;;;;;;;19.53;100.00;99856.22;3584372;39;20056;-55
2021/06/30 02:01:16;;;;;;;38.13;34.10;;;;;;;19.34;100.00;99859.25;3584554;39;20180;-53
2021/06/30 02:03:48;;;;;;;37.30;33.55;;;;;;;19.25;100.00;99845.63;3584327;39;20061;-53
2021/06/30 02:06:20;;;;;;;36.55;32.55;;;;;;;19.39;100.00;99843.56;3584181;39;20110;-54
2021/06/30 02:08:56;;;;;;;38.63;34.53;;;;;;;19.43;100.00;99841.75;3584111;39;20055;-53
2021/06/30 02:11:27;;;;;;;;;;;;;;;19.42;100.00;99834.84;3584869;39;20421;-58
2021/06/30 02:14:00;;;;;;;38.78;34.60;;;;;;;19.41;100.00;99825.34;3584236;39;19948;-50
2021/06/30 02:16:33;;;;;;;39.22;35.17;;;;;;;19.34;100.00;99830.69;3584405;39;20068;-55
2021/06/30 02:19:06;;;;;;;41.40;35.05;;;;;;;19.14;100.00;99822.53;3584283;39;20141;-53
2021/06/30 02:21:38;;;;;;;40.75;36.58;;;;;;;19.23;100.00;99830.09;3584388;39;20048;-55
2021/06/30 02:24:10;;;;;;;40.78;36.47;;;;;;;19.26;100.00;99840.41;3584463;39;20511;-54
2021/06/30 02:26:42;;;;;;;43.78;38.15;;;;;;;19.10;100.00;99836.47;3584563;39;20057;-54
2021/06/30 02:29:14;;;;;;;42.58;38.03;;;;;;;19.15;100.00;99837.22;3583766;39;20045;-54
2021/06/30 02:31:46;;;;;;;41.78;37.00;;;;;;;19.40;100.00;99834.88;3584094;39;20499;-53
2021/06/30 02:34:18;;;;;;;43.90;38.95;;;;;;;19.40;100.00;99834.88;3584130;39;20134;-52
2021/06/30 02:36:50;;;;;;;44.08;39.67;;;;;;;19.44;100.00;99828.72;3584377;39;20333;-54
2021/06/30 02:39:22;;;;;;;43.38;38.63;;;;;;;19.46;100.00;99833.88;3584069;39;20052;-53
2021/06/30 02:41:54;;;;;;;42.92;38.35;;;;;;;19.37;100.00;99823.75;3584183;39;20056;-54
2021/06/30 02:44:26;;;;;;;44.65;38.28;;;;;;;19.50;100.00;99835.50;3583928;39;20049;-54
2021/06/30 02:46:58;;;;;;;46.10;38.83;;;;;;;19.43;100.00;99842.59;3584120;39;20303;-54
2021/06/30 02:49:29;;;;;;;44.20;39.42;;;;;;;19.30;100.00;99849.81;3584132;39;20057;-52
2021/06/30 02:52:02;;;;;;;46.03;40.47;;;;;;;19.23;100.00;99852.63;3584107;39;20041;-57
2021/06/30 02:54:34;;;;;;;49.15;39.15;;;;;;;19.52;100.00;99864.91;3584157;39;20067;-53
2021/06/30 02:57:06;;;;;;;44.78;39.40;;;;;;;19.61;100.00;99866.47;3584291;39;20062;-55
2021/06/30 02:59:38;;;;;;;44.97;39.05;;;;;;;19.72;100.00;99874.81;3584166;39;20082;-53
2021/06/30 03:02:09;;;;;;;47.33;41.47;;;;;;;19.90;100.00;99882.16;3584045;39;20389;-52
2021/06/30 03:04:41;;;;;;;47.45;42.00;;;;;;;19.70;100.00;99866.22;3584082;39;20624;-54
2021/06/30 03:07:13;;;;;;;47.28;41.40;;;;;;;19.80;100.00;99873.75;3583972;39;20449;-52
2021/06/30 03:09:45;;;;;;;52.47;42.60;;;;;;;19.83;100.00;99881.47;3584141;39;20060;-53
2021/06/30 03:12:17;;;;;;;48.60;42.83;;;;;;;19.67;100.00;99889.66;3583940;39;20053;-55
2021/06/30 03:14:49;;;;;;;47.83;42.53;;;;;;;19.87;100.00;99884.81;3584046;39;20060;-52
2021/06/30 03:17:21;;;;;;;49.38;43.72;;;;;;;19.81;100.00;99885.00;3583391;39;20438;-54
2021/06/30 03:19:53;;;;;;;54.83;46.80;;;;;;;19.46;100.00;99898.78;3583719;39;20057;-53
2021/06/30 03:22:26;;;;;;;50.78;45.20;;;;;;;19.45;100.00;99902.28;3584096;39;20491;-51
2021/06/30 03:24:58;;;;;;;48.53;43.17;;;;;;;19.74;100.00;99906.84;3583117;39;20056;-56
2021/06/30 03:27:30;;;;;;;53.60;44.90;;;;;;;19.54;100.00;99902.91;3583659;39;20048;-58
2021/06/30 03:30:07;;;;;;;46.83;41.97;;;;;;;19.57;100.00;99892.47;3583582;39;20060;-53
2021/06/30 03:32:39;;;;;;;52.28;43.25;;;;;;;19.76;100.00;99879.91;3583855;39;20060;-52
2021/06/30 03:35:11;;;;;;;53.40;45.70;;;;;;;19.55;100.00;99878.69;3583791;39;20062;-52
2021/06/30 03:37:43;;;;;;;56.85;45.50;;;;;;;19.41;100.00;99893.69;3583835;39;20053;-52
2021/06/30 03:40:15;;;;;;;51.17;45.60;;;;;;;19.26;100.00;99891.47;3583858;39;20056;-53
2021/06/30 03:42:47;;;;;;;50.17;44.55;;;;;;;19.53;100.00;99890.81;3583731;39;20065;-55
2021/06/30 03:45:19;;;;;;;52.83;45.35;;;;;;;19.73;100.00;99894.72;3583795;39;20060;-53
2021/06/30 03:47:51;;;;;;;51.50;44.67;;;;;;;19.91;100.00;99888.19;3583637;39;20130;-55
2021/06/30 03:50:23;;;;;;;49.15;43.80;;;;;;;19.77;100.00;99888.53;3583566;39;20053;-56
2021/06/30 03:52:55;;;;;;;48.90;42.72;;;;;;;19.64;100.00;99881.94;3583706;39;20495;-49
2021/06/30 03:55:27;;;;;;;50.03;43.30;;;;;;;19.55;100.00;99883.88;3583410;39;20149;-56
2021/06/30 03:57:59;;;;;;;49.10;43.95;;;;;;;19.62;100.00;99869.00;3583774;39;20430;-58
2021/06/30 04:00:31;;;;;;;50.42;45.03;;;;;;;19.69;100.00;99864.50;3583793;39;20065;-49
2021/06/30 04:03:03;;;;;;;46.67;41.22;;;;;;;19.92;100.00;99875.19;3583919;39;20130;-51
2021/06/30 04:05:35;;;;;;;47.10;41.53;;;;;;;19.73;100.00;99863.53;3583838;39;20064;-56
2021/06/30 04:08:10;;;;;;;46.53;41.67;;;;;;;19.84;100.00;99861.53;3583657;39;20052;-54
2021/06/30 04:10:42;;;;;;;46.55;41.50;;;;;;;19.83;100.00;99865.03;3583789;39;20777;-55
2021/06/30 04:13:16;;;;;;;51.50;43.95;;;;;;;19.57;100.00;99863.03;3583504;39;20404;-51
2021/06/30 04:15:48;;;;;;;48.25;42.80;;;;;;;19.62;100.00;99861.22;3583687;39;20067;-54
2021/06/30 04:18:20;;;;;;;47.05;42.05;;;;;;;19.68;100.00;99866.25;3583496;39;20060;-57
2021/06/30 04:20:52;;;;;;;46.35;41.35;;;;;;;19.89;100.00;99861.41;3583559;39;20170;-54
2021/06/30 04:23:24;;;;;;;43.92;39.35;;;;;;;19.90;100.00;99857.91;3583421;39;20459;-52
2021/06/30 04:25:56;;;;;;;46.00;41.08;;;;;;;19.78;100.00;99854.75;3583384;39;20074;-55
2021/06/30 04:28:28;;;;;;;44.83;39.30;;;;;;;19.87;100.00;99851.03;3583104;39;20055;-57
2021/06/30 04:31:00;;;;;;;44.30;39.13;;;;;;;19.77;100.00;99841.78;3583490;39;20053;-54
2021/06/30 04:33:32;;;;;;;42.58;38.05;;;;;;;19.74;100.00;99842.72;3583794;39;20149;-53
2021/06/30 04:36:04;;;;;;;41.75;37.28;;;;;;;19.67;100.00;99843.75;3584348;39;20045;-58
2021/06/30 04:38:37;;;;;;;40.72;36.42;;;;;;;19.63;100.00;99843.88;3584781;39;20044;-56
2021/06/30 04:41:10;;;;;;;38.67;34.45;;;;;;;19.70;100.00;99848.03;3584801;39;20141;-52
2021/06/30 04:43:42;;;;;;;41.13;36.65;;;;;;;19.59;100.00;99849.13;3584746;39;20057;-56
2021/06/30 04:46:14;;;;;;;39.15;34.95;;;;;;;19.62;100.00;99861.22;3584771;39;20049;-55
2021/06/30 04:48:47;;;;;;;38.28;34.15;;;;;;;19.48;100.00;99871.06;3584812;39;20735;-56
2021/06/30 04:51:21;;;;;;;38.17;34.30;;;;;;;19.50;100.00;99882.25;3584889;39;20064;-55
2021/06/30 04:53:53;;;;;;;38.97;34.97;;;;;;;19.52;100.00;99898.66;3584863;39;20053;-53
2021/06/30 04:56:27;;;;;;;41.35;35.97;;;;;;;19.32;100.00;99901.72;3584664;39;20051;-55
2021/06/30 04:58:59;;;;;;;41.13;36.05;;;;;;;19.25;100.00;99906.19;3584321;39;20056;-55
2021/06/30 05:01:31;;;;;;;39.03;34.92;;;;;;;19.11;100.00;99910.84;3584802;39;20049;-54
2021/06/30 05:04:03;;;;;;;39.67;35.47;;;;;;;19.24;100.00;99917.47;3584890;39;20153;-56
2021/06/30 05:06:36;;;;;;;38.40;34.35;;;;;;;19.75;100.00;99914.56;3585004;39;20507;-55
2021/06/30 05:09:08;;;;;;;39.45;35.22;;;;;;;19.75;100.00;99905.94;3584341;39;20049;-56
2021/06/30 05:11:41;;;;;;;41.47;36.53;;;;;;;19.55;100.00;99915.03;3584811;39;20048;-55
2021/06/30 05:14:13;;;;;;;42.13;37.60;;;;;;;19.39;100.00;99907.63;3584867;39;20414;-60
2021/06/30 05:16:45;;;;;;;40.63;35.80;;;;;;;19.40;100.00;99906.72;3584670;39;20425;-56
2021/06/30 05:19:17;;;;;;;42.97;38.30;;;;;;;19.15;100.00;99911.63;3584610;39;20064;-58
2021/06/30 05:21:49;;;;;;;45.22;39.42;;;;;;;19.23;100.00;99926.16;3584897;39;20060;-54
2021/06/30 05:24:21;;;;;;;43.80;36.25;;;;;;;19.36;100.00;99915.47;3584591;39;20125;-54
2021/06/30 05:26:53;;;;;;;47.58;37.80;;;;;;;19.37;100.00;99910.25;3584648;39;20333;-58
2021/06/30 05:29:24;;;;;;;45.92;35.17;;;;;;;19.44;100.00;99911.81;3584342;39;20411;-57
2021/06/30 05:31:56;;;;;;;45.72;36.17;;;;;;;19.15;100.00;99912.47;3584645;39;20066;-54
2021/06/30 05:34:28;;;;;;;42.25;34.95;;;;;;;19.22;100.00;99901.06;3584346;39;20052;-54
2021/06/30 05:37:00;;;;;;;43.63;33.92;;;;;;;19.43;100.00;99898.88;3584447;39;20122;-56
2021/06/30 05:39:32;;;;;;;39.22;33.10;;;;;;;19.30;100.00;99896.56;3584515;39;20086;-55
2021/06/30 05:42:04;;;;;;;35.15;31.55;;;;;;;19.50;100.00;99892.63;3584560;39;20048;-54
2021/06/30 05:44:36;;;;;;;34.58;30.88;;;;;;;19.46;100.00;99893.59;3584628;39;20146;-56
2021/06/30 05:47:08;;;;;;;32.50;29.02;;;;;;;19.47;100.00;99896.16;3584223;39;20043;-52
2021/06/30 05:49:40;;;;;;;33.58;29.77;;;;;;;19.35;100.00;99891.25;3584633;39;20053;-55
2021/06/30 05:52:12;;;;;;;34.10;30.58;;;;;;;19.07;100.00;99894.47;3584483;39;20048;-55
2021/06/30 05:54:44;;;;;;;32.80;29.50;;;;;;;19.15;100.00;99894.31;3584362;39;20337;-56
2021/06/30 05:57:16;;;;;;;31.60;28.33;;;;;;;19.05;100.00;99891.06;3585487;39;20101;-55
2021/06/30 05:59:47;;;;;;;32.85;29.52;;;;;;;19.06;100.00;99897.09;3584403;39;20156;-55
2021/06/30 06:02:21;;;;;;;30.30;27.15;;;;;;;19.04;100.00;99899.75;3584445;39;20048;-53
2021/06/30 06:04:53;;;;;;;29.48;26.48;;;;;;;19.06;100.00;99900.56;3584101;39;20052;-54
2021/06/30 06:07:25;;;;;;;30.98;27.90;;;;;;;19.09;100.00;99907.44;3584320;39;20056;-57
2021/06/30 06:09:58;;;;;;;28.38;25.38;;;;;;;19.03;100.00;99911.00;3584176;39;20402;-54
2021/06/30 06:12:30;;;;;;;28.55;25.58;;;;;;;19.07;100.00;99916.97;3584387;39;20138;-56
2021/06/30 06:15:04;;;;;;;27.98;24.98;;;;;;;18.99;100.00;99932.69;3584296;39;20430;-55
2021/06/30 06:17:39;;;;;;;30.77;27.58;;;;;;;19.00;100.00;99931.00;3584246;39;20057;-55
2021/06/30 06:20:12;;;;;;;31.20;27.88;;;;;;;19.16;100.00;99941.88;3584127;39;20072;-57
2021/06/30 06:22:44;;;;;;;32.20;28.90;;;;;;;19.05;100.00;99944.72;3584459;39;20447;-53
2021/06/30 06:25:15;;;;;;;33.33;29.60;;;;;;;19.19;100.00;99940.09;3584448;39;20060;-49
2021/06/30 06:27:47;;;;;;;34.55;30.02;;;;;;;19.15;100.00;99937.59;3584379;39;20145;-55
2021/06/30 06:30:20;;;;;;;34.83;31.23;;;;;;;19.11;100.00;99944.56;3584500;39;20064;-55
2021/06/30 06:32:52;;;;;;;31.67;28.35;;;;;;;19.01;100.00;99940.47;3584147;39;20077;-53
2021/06/30 06:35:24;;;;;;;29.77;26.60;;;;;;;19.02;100.00;99953.41;3584503;39;20576;-55
2021/06/30 06:37:56;;;;;;;28.85;25.83;;;;;;;19.03;100.00;99941.28;3583190;39;20508;-52
2021/06/30 06:40:28;;;;;;;24.40;21.77;;;;;;;18.99;100.00;99945.66;3564230;40;20100;-52
2021/06/30 06:43:00;;;;;;;21.45;18.90;;;;;;;18.87;100.00;99943.34;3566157;40;20053;-56
2021/06/30 06:45:32;;;;;;;21.67;19.48;;;;;;;18.89;100.00;99926.00;3567980;40;20083;-59
2021/06/30 06:48:05;;;;;;;17.27;15.63;;;;;;;18.93;100.00;99929.38;3564739;40;20064;-55
2021/06/30 06:50:37;;;;;;;16.65;15.10;;;;;;;19.08;100.00;99924.72;3564120;40;20425;-57
2021/06/30 06:53:09;;;;;;;18.05;16.35;;;;;;;19.08;100.00;99919.53;3564157;40;20065;-55
2021/06/30 06:55:41;;;;;;;16.65;14.98;;;;;;;19.16;100.00;99928.91;3563840;40;20073;-54
2021/06/30 06:58:13;;;;;;;16.85;15.15;;;;;;;19.11;100.00;99923.81;3563621;40;20453;-54
2021/06/30 07:00:45;;;;;;;16.05;14.55;;;;;;;19.20;100.00;99922.75;3563662;40;20140;-54
2021/06/30 07:03:16;;;;;;;13.18;11.82;;;;;;;19.09;100.00;99920.41;3564187;40;20050;-56
2021/06/30 07:05:48;;;;;;;12.70;11.60;;;;;;;18.98;100.00;99915.44;3563719;40;20722;-55
2021/06/30 07:08:20;;;;;;;11.43;10.40;;;;;;;19.22;100.00;99924.41;3563813;40;20346;-55
2021/06/30 07:10:52;;;;;;;9.02;8.20;;;;;;;19.11;100.00;99923.81;3563957;40;20069;-49
2021/06/30 07:13:24;;;;;;;10.43;9.52;;;;;;;19.16;100.00;99924.56;3563660;40;20057;-48
2021/06/30 07:15:56;;;;;;;9.57;8.77;;;;;;;19.13;100.00;99921.16;3563725;40;20753;-48
2021/06/30 07:18:28;;;;;;;9.60;8.77;;;;;;;19.23;100.00;99928.75;3563660;40;20147;-49
2021/06/30 07:21:01;;;;;;;10.20;9.20;;;;;;;19.23;100.00;99930.50;3563602;40;20695;-53
2021/06/30 07:23:33;;;;;;;9.15;8.30;;;;;;;19.12;100.00;99928.09;3563717;40;20609;-51
2021/06/30 07:26:05;;;;;;;9.23;8.40;;;;;;;19.22;100.00;99928.75;3566816;40;20206;-53
2021/06/30 07:28:37;;;;;;;10.30;9.40;;;;;;;19.05;100.00;99924.81;3573525;40;20376;-51
2021/06/30 07:31:09;;;;;;;10.57;9.57;;;;;;;19.00;100.00;99918.00;3573532;40;20420;-49
2021/06/30 07:33:41;;;;;;;10.48;9.52;;;;;;;19.19;100.00;99916.72;3573681;40;20425;-49
2021/06/30 07:36:14;;;;;;;10.90;9.90;;;;;;;19.09;100.00;99923.00;3573678;40;20142;-50
2021/06/30 07:38:46;;;;;;;11.73;10.63;;;;;;;19.08;100.00;99918.69;3573837;40;20049;-52
2021/06/30 07:41:18;;;;;;;12.68;11.48;;;;;;;18.97;100.00;99918.91;3573752;40;20064;-46
2021/06/30 07:43:50;;;;;;;13.77;12.57;;;;;;;19.02;100.00;99921.41;3573682;40;20053;-47
2021/06/30 07:46:17;;;;;;;12.75;11.65;;;;;;;19.21;100.00;99922.72;3573288;40;20069;-48
2021/06/30 07:48:44;;;;;;;12.70;11.35;;;;;;;19.29;100.00;99922.56;3573157;40;20080;-47
2021/06/30 07:51:12;;;;;;;13.18;11.80;;;;;;;19.41;100.00;99926.59;3573264;40;20108;-50
2021/06/30 07:53:40;;;;;;;13.00;11.80;;;;;;;19.27;100.00;99926.91;3573715;40;20110;-52
2021/06/30 07:56:07;;;;;;;12.98;11.75;;;;;;;19.43;100.00;99927.44;3573288;40;20085;-54
2021/06/30 07:58:34;;;;;;;12.18;11.07;;;;;;;19.35;100.00;99927.59;3573178;40;20072;-52
2021/06/30 08:01:01;;;;;;;12.77;11.63;;;;;;;19.08;100.00;99932.50;3573281;40;20325;-54
2021/06/30 08:03:28;;;;;;;14.63;12.70;;;;;;;19.27;100.00;99942.50;3573310;40;20081;-50
2021/06/30 08:05:55;;;;;;;13.13;11.93;;;;;;;19.20;100.00;99935.75;3573301;40;20060;-52
2021/06/30 08:08:22;;;;;;;13.40;12.27;;;;;;;19.19;100.00;99936.63;3573068;40;20071;-48
2021/06/30 08:10:49;;;;;;;12.50;11.40;;;;;;;19.33;100.00;99932.00;3576371;39;22693;-55
2021/06/30 08:13:17;;;;;;;13.20;11.98;;;;;;;19.21;100.00;99940.03;3573000;40;20049;-50
2021/06/30 08:15:44;;;;;;;12.23;11.00;;;;;;;19.44;100.00;99942.97;3583346;39;20064;-47
2021/06/30 08:18:11;;;;;;;12.80;11.60;;;;;;;19.21;100.00;99943.47;3583795;39;20092;-47
2021/06/30 08:20:39;;;;;;;10.88;9.85;;;;;;;19.26;100.00;99939.03;3574546;40;20057;-48
2021/06/30 08:23:06;;;;;;;11.80;10.68;;;;;;;19.21;100.00;99947.81;3574799;40;20057;-57
2021/06/30 08:25:33;;;;;;;12.50;11.20;;;;;;;19.23;100.00;99954.69;3574725;40;20057;-53
2021/06/30 08:28:00;;;;;;;11.50;10.48;;;;;;;19.08;100.00;99955.84;3580868;39;20092;-54
2021/06/30 08:30:27;;;;;;;12.65;11.55;;;;;;;19.08;100.00;99957.59;3584897;39;20056;-55
2021/06/30 08:32:54;;;;;;;12.13;10.98;;;;;;;19.19;100.00;99966.03;3584582;39;20111;-53
2021/06/30 08:35:21;;;;;;;12.18;11.00;;;;;;;19.23;100.00;99966.84;3574635;39;20056;-52
2021/06/30 08:37:48;;;;;;;12.77;11.48;;;;;;;19.29;100.00;99966.69;3583519;39;20748;-51
2021/06/30 08:40:16;;;;;;;12.75;11.48;;;;;;;19.56;100.00;99973.03;3584560;39;20080;-48
2021/06/30 08:42:44;;;;;;;12.85;11.65;;;;;;;19.40;100.00;99967.28;3584876;39;20060;-52
2021/06/30 08:45:12;;;;;;;13.48;12.13;;;;;;;19.33;100.00;99961.41;3576927;39;20075;-51
2021/06/30 08:47:41;;;;;;;13.27;12.10;;;;;;;19.36;100.00;99959.59;3574377;40;20057;-47
2021/06/30 08:50:10;;;;;;;12.07;11.07;;;;;;;19.45;100.00;99954.22;3574431;40;20057;-47
2021/06/30 08:52:37;;;;;;;12.90;11.80;;;;;;;19.55;100.00;99950.50;3568153;40;20469;-55
2021/06/30 08:55:08;;;;;;;12.75;11.43;;;;;;;19.47;100.00;99952.44;3574408;40;20053;-50
2021/06/30 08:57:38;;;;;;;12.30;11.10;;;;;;;19.38;100.00;99950.91;3574466;40;20079;-54
2021/06/30 09:00:09;;;;;;;12.57;11.32;;;;;;;19.51;100.00;99941.97;3574616;40;20482;-53
2021/06/30 09:02:36;;;;;;;11.48;10.35;;;;;;;19.46;100.00;99948.13;3574349;40;20092;-53
2021/06/30 09:06:00;;;;;;;9.77;8.88;;;;;;;19.51;100.00;99941.09;3574243;40;20047;-55
2021/06/30 09:07:58;;;;;;;9.43;8.60;;;;;;;19.34;100.00;99936.28;3572889;40;20089;-47
2021/06/30 09:10:33;;;;;;;9.75;8.75;;;;;;;19.10;100.00;99942.03;3574571;40;20088;-51
2021/06/30 09:13:01;;;;;;;10.75;7.80;;;;;;;19.17;100.00;99943.59;3574338;40;20088;-52
2021/06/30 09:15:33;;;;;;;7.35;6.65;;;;;;;19.32;100.00;99945.88;3574523;40;20085;-49
2021/06/30 09:18:31;;;;;;;7.28;6.53;;;;;;;19.12;100.00;99946.28;3574268;40;20065;-47
2021/06/30 09:21:25;;;;;;;6.00;5.47;;;;;;;19.16;100.00;99950.50;3574678;40;20077;-47
2021/06/30 09:23:56;;;;;;;6.10;5.70;;;;;;;19.10;100.00;99948.06;3574057;40;20068;-48
2021/06/30 09:26:24;;;;;;;6.38;5.88;;;;;;;19.05;100.00;99958.53;3574358;40;20317;-49
2021/06/30 09:29:07;;;;;;;6.63;6.13;;;;;;;18.88;100.00;99963.22;3574329;40;20097;-49
2021/06/30 09:31:36;;;;;;;7.05;6.35;;;;;;;18.98;100.00;99966.47;3574153;40;20345;-51
2021/06/30 09:34:04;;;;;;;7.07;6.05;;;;;;;19.12;100.00;99968.78;3574150;40;20073;-50
2021/06/30 09:36:43;;;;;;;7.35;6.75;;;;;;;19.41;100.00;99963.81;3574497;40;20049;-51
2021/06/30 09:39:13;;;;;;;9.10;7.15;;;;;;;18.91;100.00;99967.50;3574108;40;20063;-53
2021/06/30 09:41:44;;;;;;;8.93;7.55;;;;;;;19.16;100.00;99960.91;3573197;40;20089;-47
2021/06/30 09:44:18;;;;;;;8.77;7.97;;;;;;;19.28;100.00;99959.78;3574363;40;20067;-51
2021/06/30 09:46:47;;;;;;;8.77;7.97;;;;;;;19.34;100.00;99957.06;3574333;40;20057;-51
2021/06/30 09:49:17;;;;;;;11.15;8.75;;;;;;;19.05;100.00;99958.53;3574024;40;20096;-51
2021/06/30 09:51:46;;;;;;;8.75;7.90;;;;;;;19.39;100.00;99962.16;3574191;40;20064;-47
2021/06/30 09:54:15;;;;;;;10.10;9.05;;;;;;;19.30;100.00;99964.06;3574284;40;20052;-51
2021/06/30 09:57:01;;;;;;;10.10;9.10;;;;;;;19.17;100.00;99960.00;3574104;40;20053;-47
2021/06/30 09:59:35;;;;;;;10.52;9.52;;;;;;;19.36;100.00;99967.41;3574177;40;20108;-49
2021/06/30 10:02:17;;;;;;;9.82;8.88;;;;;;;19.48;100.00;99959.34;3573126;40;20080;-48
2021/06/30 10:04:59;;;;;;;10.85;9.85;;;;;;;19.21;100.00;99946.06;3573897;40;20307;-52
2021/06/30 10:07:28;;;;;;;12.18;9.95;;;;;;;19.20;100.00;99946.97;3573856;40;20062;-50
2021/06/30 10:09:55;;;;;;;10.35;8.40;;;;;;;19.23;100.00;99933.94;3573946;40;20060;-53
2021/06/30 10:12:26;;;;;;;10.00;9.10;;;;;;;19.13;100.00;99932.41;3573978;40;20088;-52
2021/06/30 10:14:53;;;;;;;10.23;9.23;;;;;;;19.32;100.00;99922.50;3574066;40;20057;-47
2021/06/30 10:17:22;;;;;;;11.15;10.25;;;;;;;19.34;100.00;99921.56;3573877;40;20443;-56
2021/06/30 10:19:55;;;;;;;10.93;9.20;;;;;;;19.44;100.00;99921.34;3574151;40;20430;-56
2021/06/30 10:22:23;;;;;;;10.43;9.50;;;;;;;19.45;100.00;99921.31;3573963;40;20053;-55
2021/06/30 10:24:51;;;;;;;8.10;7.30;;;;;;;19.34;100.00;99931.94;3573964;40;20037;-49
2021/06/30 10:27:19;;;;;;;8.52;7.65;;;;;;;19.19;100.00;99940.09;3573944;40;20101;-51
2021/06/30 10:29:52;;;;;;;9.75;7.72;;;;;;;19.27;100.00;99939.91;3573708;40;20089;-56
2021/06/30 10:32:20;;;;;;;8.45;6.80;;;;;;;19.00;100.00;99933.56;3573794;40;20105;-49
2021/06/30 10:34:52;;;;;;;7.13;6.43;;;;;;;19.21;100.00;99940.88;3573621;40;20056;-49
2021/06/30 10:37:21;;;;;;;7.32;6.57;;;;;;;19.23;100.00;99933.09;3573687;40;20472;-48
2021/06/30 10:39:50;;;;;;;8.27;7.57;;;;;;;19.24;100.00;99938.22;3573853;40;20343;-53
2021/06/30 10:42:32;;;;;;;9.13;8.30;;;;;;;19.28;100.00;99939.03;3573874;40;20101;-50
2021/06/30 10:45:24;;;;;;;9.27;8.38;;;;;;;19.24;100.00;99935.63;3574150;40;20501;-53
2021/06/30 10:48:03;;;;;;;12.25;11.15;;;;;;;19.28;100.00;99931.25;3573950;40;20394;-55
2021/06/30 10:50:44;;;;;;;13.57;12.38;;;;;;;19.17;100.00;99921.06;3571395;40;20356;-54
2021/06/30 10:53:12;;;;;;;16.70;13.55;;;;;;;19.03;100.00;99907.53;3573482;40;20088;-51
2021/06/30 10:55:40;;;;;;;17.10;15.50;;;;;;;19.02;100.00;99911.88;3573754;40;20056;-48
2021/06/30 10:58:13;;;;;;;18.67;16.88;;;;;;;19.12;100.00;99909.94;3573831;40;20543;-49
2021/06/30 11:01:04;;;;;;;19.77;17.77;;;;;;;19.07;100.00;99912.63;3573833;40;20096;-49
2021/06/30 11:03:47;;;;;;;20.63;18.63;;;;;;;19.13;100.00;99926.38;3573309;40;20047;-57
2021/06/30 11:06:24;;;;;;;22.00;19.80;;;;;;;19.05;100.00;99926.53;3573678;40;20044;-53
2021/06/30 11:08:58;;;;;;;20.23;18.25;;;;;;;19.12;100.00;99930.69;3573461;40;20073;-49
2021/06/30 11:11:29;;;;;;;22.58;20.25;;;;;;;19.07;100.00;99929.94;3573693;40;20053;-56
2021/06/30 11:14:08;;;;;;;24.25;21.73;;;;;;;19.22;100.00;99933.94;3573770;40;20068;-49
2021/06/30 11:16:38;;;;;;;21.23;19.10;;;;;;;19.19;100.00;99934.03;3573548;40;20096;-49
2021/06/30 11:19:18;;;;;;;22.42;20.13;;;;;;;19.12;100.00;99935.03;3573519;40;20093;-54
2021/06/30 11:22:04;;;;;;;22.00;20.00;;;;;;;19.01;100.00;99945.66;3573655;40;20056;-52
2021/06/30 11:24:49;;;;;;;21.73;19.38;;;;;;;19.10;100.00;99955.84;3573602;40;20052;-48
2021/06/30 11:27:22;;;;;;;20.20;18.20;;;;;;;19.40;100.00;99964.69;3573608;40;20328;-51
2021/06/30 11:29:55;;;;;;;21.85;19.63;;;;;;;19.29;100.00;99959.75;3573595;40;20462;-48
2021/06/30 11:32:31;;;;;;;20.13;18.10;;;;;;;19.42;100.00;99967.28;3573662;40;20120;-55
2021/06/30 11:35:00;;;;;;;18.50;16.80;;;;;;;19.33;100.00;99965.75;3573622;40;20728;-51